sensor_id;sensor_type;location;lat;lon;timestamp;P1;durP1;ratioP1;P2;durP2;ratioP2
6077;SDS011;3067;49.470;10.394;2023-04-25T00:01:44;2.70;;;2.50;;
6077;SDS011;3067;49.470;10.394;2023-04-25T00:04:12;2.20;;;2.00;;
6077;SDS011;3067;49.470;10.394;2023-04-25T00:06:39;2.10;;;1.90;;
6077;SDS011;3067;49.470;10.394;2023-04-25T00:09:06;4.50;;;1.93;;
6077;SDS011;3067;49.470;10.394;2023-04-25T00:11:35;1.67;;;1.57;;
6077;SDS011;3067;49.470;10.394;2023-04-25T00:14:03;2.17;;;1.80;;
6077;SDS011;3067;49.470;10.394;2023-04-25T00:16:33;2.20;;;2.10;;
6077;SDS011;3067;49.470;10.394;2023-04-25T00:19:00;2.37;;;2.13;;
6077;SDS011;3067;49.470;10.394;2023-04-25T00:21:27;2.20;;;2.00;;
6077;SDS011;3067;49.470;10.394;2023-04-25T00:23:56;2.37;;;2.27;;
6077;SDS011;3067;49.470;10.394;2023-04-25T00:26:24;2.20;;;2.10;;
6077;SDS011;3067;49.470;10.394;2023-04-25T00:28:51;2.03;;;1.80;;
6077;SDS011;3067;49.470;10.394;2023-04-25T00:31:18;1.67;;;1.57;;
6077;SDS011;3067;49.470;10.394;2023-04-25T00:33:47;2.53;;;2.20;;
6077;SDS011;3067;49.470;10.394;2023-04-25T00:36:14;2.60;;;2.40;;
6077;SDS011;3067;49.470;10.394;2023-04-25T00:38:42;3.00;;;2.80;;
6077;SDS011;3067;49.470;10.394;2023-04-25T00:41:09;2.47;;;2.27;;
6077;SDS011;3067;49.470;10.394;2023-04-25T00:43:37;3.73;;;2.90;;
6077;SDS011;3067;49.470;10.394;2023-04-25T00:46:04;2.70;;;2.60;;
6077;SDS011;3067;49.470;10.394;2023-04-25T00:48:32;2.70;;;2.50;;
6077;SDS011;3067;49.470;10.394;2023-04-25T00:51:00;2.53;;;2.33;;
6077;SDS011;3067;49.470;10.394;2023-04-25T00:53:28;4.70;;;2.90;;
6077;SDS011;3067;49.470;10.394;2023-04-25T00:55:57;3.63;;;2.90;;
6077;SDS011;3067;49.470;10.394;2023-04-25T00:58:25;2.40;;;2.30;;
6077;SDS011;3067;49.470;10.394;2023-04-25T01:00:53;2.00;;;1.90;;
6077;SDS011;3067;49.470;10.394;2023-04-25T01:03:21;2.57;;;2.37;;
6077;SDS011;3067;49.470;10.394;2023-04-25T01:05:49;2.83;;;2.50;;
6077;SDS011;3067;49.470;10.394;2023-04-25T01:08:18;2.70;;;2.50;;
6077;SDS011;3067;49.470;10.394;2023-04-25T01:10:45;2.27;;;2.07;;
6077;SDS011;3067;49.470;10.394;2023-04-25T01:13:13;2.73;;;2.57;;
6077;SDS011;3067;49.470;10.394;2023-04-25T01:15:40;2.67;;;2.47;;
6077;SDS011;3067;49.470;10.394;2023-04-25T01:18:07;2.63;;;2.30;;
6077;SDS011;3067;49.470;10.394;2023-04-25T01:20:35;5.00;;;2.50;;
6077;SDS011;3067;49.470;10.394;2023-04-25T01:23:05;2.73;;;2.33;;
6077;SDS011;3067;49.470;10.394;2023-04-25T01:25:32;6.37;;;2.70;;
6077;SDS011;3067;49.470;10.394;2023-04-25T01:28:00;2.40;;;2.27;;
6077;SDS011;3067;49.470;10.394;2023-04-25T01:30:28;2.50;;;2.40;;
6077;SDS011;3067;49.470;10.394;2023-04-25T01:32:56;2.60;;;2.40;;
6077;SDS011;3067;49.470;10.394;2023-04-25T01:35:23;2.87;;;2.57;;
6077;SDS011;3067;49.470;10.394;2023-04-25T01:37:51;4.43;;;2.97;;
6077;SDS011;3067;49.470;10.394;2023-04-25T01:40:20;2.90;;;2.43;;
6077;SDS011;3067;49.470;10.394;2023-04-25T01:42:48;6.33;;;2.60;;
6077;SDS011;3067;49.470;10.394;2023-04-25T01:45:15;7.43;;;2.73;;
6077;SDS011;3067;49.470;10.394;2023-04-25T01:47:43;2.60;;;2.40;;
6077;SDS011;3067;49.470;10.394;2023-04-25T01:50:14;2.97;;;2.77;;
6077;SDS011;3067;49.470;10.394;2023-04-25T01:52:41;2.60;;;2.40;;
6077;SDS011;3067;49.470;10.394;2023-04-25T01:55:09;2.63;;;2.53;;
6077;SDS011;3067;49.470;10.394;2023-04-25T01:57:37;4.30;;;2.70;;
6077;SDS011;3067;49.470;10.394;2023-04-25T02:00:05;2.80;;;2.60;;
6077;SDS011;3067;49.470;10.394;2023-04-25T02:02:34;3.03;;;2.73;;
6077;SDS011;3067;49.470;10.394;2023-04-25T02:05:01;3.00;;;2.80;;
6077;SDS011;3067;49.470;10.394;2023-04-25T02:07:28;3.07;;;2.77;;
6077;SDS011;3067;49.470;10.394;2023-04-25T02:09:56;4.07;;;2.90;;
6077;SDS011;3067;49.470;10.394;2023-04-25T02:12:23;3.90;;;3.03;;
6077;SDS011;3067;49.470;10.394;2023-04-25T02:14:52;5.50;;;3.60;;
6077;SDS011;3067;49.470;10.394;2023-04-25T02:17:20;3.20;;;2.90;;
6077;SDS011;3067;49.470;10.394;2023-04-25T02:19:47;4.20;;;3.30;;
6077;SDS011;3067;49.470;10.394;2023-04-25T02:22:15;3.27;;;2.97;;
6077;SDS011;3067;49.470;10.394;2023-04-25T02:24:42;4.63;;;3.60;;
6077;SDS011;3067;49.470;10.394;2023-04-25T02:27:09;4.87;;;2.97;;
6077;SDS011;3067;49.470;10.394;2023-04-25T02:29:37;4.07;;;2.87;;
6077;SDS011;3067;49.470;10.394;2023-04-25T02:32:06;2.70;;;2.50;;
6077;SDS011;3067;49.470;10.394;2023-04-25T02:34:33;4.07;;;3.10;;
6077;SDS011;3067;49.470;10.394;2023-04-25T02:37:00;3.10;;;2.63;;
6077;SDS011;3067;49.470;10.394;2023-04-25T02:39:28;3.13;;;2.83;;
6077;SDS011;3067;49.470;10.394;2023-04-25T02:41:55;3.10;;;2.83;;
6077;SDS011;3067;49.470;10.394;2023-04-25T02:44:22;3.77;;;2.60;;
6077;SDS011;3067;49.470;10.394;2023-04-25T02:46:50;5.07;;;3.30;;
6077;SDS011;3067;49.470;10.394;2023-04-25T02:49:18;3.33;;;2.67;;
6077;SDS011;3067;49.470;10.394;2023-04-25T02:51:46;3.40;;;3.10;;
6077;SDS011;3067;49.470;10.394;2023-04-25T02:54:13;4.57;;;3.30;;
6077;SDS011;3067;49.470;10.394;2023-04-25T02:56:40;3.47;;;3.17;;
6077;SDS011;3067;49.470;10.394;2023-04-25T02:59:08;4.67;;;2.63;;
6077;SDS011;3067;49.470;10.394;2023-04-25T03:01:35;5.90;;;3.80;;
6077;SDS011;3067;49.470;10.394;2023-04-25T03:04:02;3.70;;;3.47;;
6077;SDS011;3067;49.470;10.394;2023-04-25T03:06:31;3.90;;;3.10;;
6077;SDS011;3067;49.470;10.394;2023-04-25T03:08:58;3.30;;;3.00;;
6077;SDS011;3067;49.470;10.394;2023-04-25T03:11:26;4.33;;;3.00;;
6077;SDS011;3067;49.470;10.394;2023-04-25T03:13:53;4.00;;;3.07;;
6077;SDS011;3067;49.470;10.394;2023-04-25T03:16:21;4.40;;;3.37;;
6077;SDS011;3067;49.470;10.394;2023-04-25T03:18:48;5.93;;;3.37;;
6077;SDS011;3067;49.470;10.394;2023-04-25T03:21:16;2.63;;;2.40;;
6077;SDS011;3067;49.470;10.394;2023-04-25T03:23:44;4.27;;;2.87;;
6077;SDS011;3067;49.470;10.394;2023-04-25T03:26:12;3.13;;;2.83;;
6077;SDS011;3067;49.470;10.394;2023-04-25T03:28:39;3.77;;;3.27;;
6077;SDS011;3067;49.470;10.394;2023-04-25T03:31:07;4.77;;;2.97;;
6077;SDS011;3067;49.470;10.394;2023-04-25T03:33:34;3.67;;;2.57;;
6077;SDS011;3067;49.470;10.394;2023-04-25T03:36:01;4.33;;;3.50;;
6077;SDS011;3067;49.470;10.394;2023-04-25T03:38:28;4.50;;;3.30;;
6077;SDS011;3067;49.470;10.394;2023-04-25T03:40:57;3.60;;;3.30;;
6077;SDS011;3067;49.470;10.394;2023-04-25T03:43:25;3.67;;;3.37;;
6077;SDS011;3067;49.470;10.394;2023-04-25T03:45:52;3.30;;;3.00;;
6077;SDS011;3067;49.470;10.394;2023-04-25T03:48:19;6.53;;;3.43;;
6077;SDS011;3067;49.470;10.394;2023-04-25T03:50:49;4.20;;;3.33;;
6077;SDS011;3067;49.470;10.394;2023-04-25T03:53:17;4.13;;;3.43;;
6077;SDS011;3067;49.470;10.394;2023-04-25T03:55:44;5.17;;;3.80;;
6077;SDS011;3067;49.470;10.394;2023-04-25T03:58:13;4.20;;;3.50;;
6077;SDS011;3067;49.470;10.394;2023-04-25T04:00:40;5.73;;;3.40;;
6077;SDS011;3067;49.470;10.394;2023-04-25T04:03:08;4.20;;;3.67;;
6077;SDS011;3067;49.470;10.394;2023-04-25T04:05:36;7.67;;;3.50;;
6077;SDS011;3067;49.470;10.394;2023-04-25T04:08:05;4.93;;;3.80;;
6077;SDS011;3067;49.470;10.394;2023-04-25T04:10:32;5.83;;;3.43;;
6077;SDS011;3067;49.470;10.394;2023-04-25T04:13:00;9.80;;;3.20;;
6077;SDS011;3067;49.470;10.394;2023-04-25T04:15:28;8.60;;;4.20;;
6077;SDS011;3067;49.470;10.394;2023-04-25T04:17:58;4.07;;;3.30;;
6077;SDS011;3067;49.470;10.394;2023-04-25T04:20:28;6.93;;;3.77;;
6077;SDS011;3067;49.470;10.394;2023-04-25T04:22:56;4.30;;;3.20;;
6077;SDS011;3067;49.470;10.394;2023-04-25T04:25:23;7.00;;;3.97;;
6077;SDS011;3067;49.470;10.394;2023-04-25T04:27:51;3.80;;;3.50;;
6077;SDS011;3067;49.470;10.394;2023-04-25T04:30:20;6.30;;;3.60;;
6077;SDS011;3067;49.470;10.394;2023-04-25T04:32:50;7.13;;;4.03;;
6077;SDS011;3067;49.470;10.394;2023-04-25T04:35:17;7.60;;;4.10;;
6077;SDS011;3067;49.470;10.394;2023-04-25T04:37:45;6.40;;;3.93;;
6077;SDS011;3067;49.470;10.394;2023-04-25T04:40:13;4.80;;;2.80;;
6077;SDS011;3067;49.470;10.394;2023-04-25T04:42:41;5.13;;;3.70;;
6077;SDS011;3067;49.470;10.394;2023-04-25T04:45:09;5.67;;;4.10;;
6077;SDS011;3067;49.470;10.394;2023-04-25T04:47:37;4.50;;;3.67;;
6077;SDS011;3067;49.470;10.394;2023-04-25T04:50:09;4.20;;;3.33;;
6077;SDS011;3067;49.470;10.394;2023-04-25T04:52:53;4.00;;;3.33;;
6077;SDS011;3067;49.470;10.394;2023-04-25T04:55:21;4.30;;;3.70;;
6077;SDS011;3067;49.470;10.394;2023-04-25T04:57:48;5.70;;;3.37;;
6077;SDS011;3067;49.470;10.394;2023-04-25T05:00:16;7.00;;;4.30;;
6077;SDS011;3067;49.470;10.394;2023-04-25T05:02:43;5.27;;;3.97;;
6077;SDS011;3067;49.470;10.394;2023-04-25T05:05:12;5.03;;;4.23;;
6077;SDS011;3067;49.470;10.394;2023-04-25T05:07:39;7.33;;;4.47;;
6077;SDS011;3067;49.470;10.394;2023-04-25T05:10:07;11.70;;;3.77;;
6077;SDS011;3067;49.470;10.394;2023-04-25T05:12:34;6.00;;;3.47;;
6077;SDS011;3067;49.470;10.394;2023-04-25T05:15:02;5.27;;;3.83;;
6077;SDS011;3067;49.470;10.394;2023-04-25T05:17:29;6.50;;;4.40;;
6077;SDS011;3067;49.470;10.394;2023-04-25T05:19:57;3.67;;;3.37;;
6077;SDS011;3067;49.470;10.394;2023-04-25T05:22:26;9.40;;;3.97;;
6077;SDS011;3067;49.470;10.394;2023-04-25T05:24:53;5.03;;;3.53;;
6077;SDS011;3067;49.470;10.394;2023-04-25T05:27:21;7.53;;;3.90;;
6077;SDS011;3067;49.470;10.394;2023-04-25T05:29:48;4.83;;;3.80;;
6077;SDS011;3067;49.470;10.394;2023-04-25T05:32:16;3.83;;;3.50;;
6077;SDS011;3067;49.470;10.394;2023-04-25T05:34:43;5.10;;;3.80;;
6077;SDS011;3067;49.470;10.394;2023-04-25T05:37:10;5.23;;;4.00;;
6077;SDS011;3067;49.470;10.394;2023-04-25T05:39:39;5.20;;;3.27;;
6077;SDS011;3067;49.470;10.394;2023-04-25T05:42:06;3.83;;;3.43;;
6077;SDS011;3067;49.470;10.394;2023-04-25T05:44:34;3.53;;;3.10;;
6077;SDS011;3067;49.470;10.394;2023-04-25T05:47:01;5.20;;;3.77;;
6077;SDS011;3067;49.470;10.394;2023-04-25T05:49:29;8.13;;;3.80;;
6077;SDS011;3067;49.470;10.394;2023-04-25T05:51:56;4.57;;;3.83;;
6077;SDS011;3067;49.470;10.394;2023-04-25T05:54:24;3.90;;;3.43;;
6077;SDS011;3067;49.470;10.394;2023-04-25T05:56:52;4.73;;;3.70;;
6077;SDS011;3067;49.470;10.394;2023-04-25T05:59:20;3.33;;;3.03;;
6077;SDS011;3067;49.470;10.394;2023-04-25T06:01:47;3.87;;;3.37;;
6077;SDS011;3067;49.470;10.394;2023-04-25T06:04:14;6.67;;;4.07;;
6077;SDS011;3067;49.470;10.394;2023-04-25T06:06:42;5.43;;;4.10;;
6077;SDS011;3067;49.470;10.394;2023-04-25T06:09:09;7.50;;;3.50;;
6077;SDS011;3067;49.470;10.394;2023-04-25T06:11:36;4.80;;;3.87;;
6077;SDS011;3067;49.470;10.394;2023-04-25T06:14:05;4.33;;;3.77;;
6077;SDS011;3067;49.470;10.394;2023-04-25T06:16:33;4.10;;;3.03;;
6077;SDS011;3067;49.470;10.394;2023-04-25T06:19:00;3.83;;;3.40;;
6077;SDS011;3067;49.470;10.394;2023-04-25T06:21:27;4.60;;;3.73;;
6077;SDS011;3067;49.470;10.394;2023-04-25T06:23:54;7.07;;;3.20;;
6077;SDS011;3067;49.470;10.394;2023-04-25T06:26:22;4.67;;;3.70;;
6077;SDS011;3067;49.470;10.394;2023-04-25T06:28:49;6.67;;;3.97;;
6077;SDS011;3067;49.470;10.394;2023-04-25T06:31:18;6.30;;;3.83;;
6077;SDS011;3067;49.470;10.394;2023-04-25T06:33:45;4.80;;;3.80;;
6077;SDS011;3067;49.470;10.394;2023-04-25T06:36:13;5.77;;;3.87;;
6077;SDS011;3067;49.470;10.394;2023-04-25T06:38:40;4.80;;;3.80;;
6077;SDS011;3067;49.470;10.394;2023-04-25T06:41:07;3.60;;;2.47;;
6077;SDS011;3067;49.470;10.394;2023-04-25T06:43:35;2.47;;;2.37;;
6077;SDS011;3067;49.470;10.394;2023-04-25T06:46:02;2.60;;;2.40;;
6077;SDS011;3067;49.470;10.394;2023-04-25T06:48:31;2.80;;;2.60;;
6077;SDS011;3067;49.470;10.394;2023-04-25T06:50:58;2.90;;;2.70;;
6077;SDS011;3067;49.470;10.394;2023-04-25T06:53:25;3.27;;;2.07;;
6077;SDS011;3067;49.470;10.394;2023-04-25T06:55:53;2.33;;;1.80;;
6077;SDS011;3067;49.470;10.394;2023-04-25T06:58:20;2.63;;;2.43;;
6077;SDS011;3067;49.470;10.394;2023-04-25T07:00:47;2.83;;;2.63;;
6077;SDS011;3067;49.470;10.394;2023-04-25T07:03:15;2.80;;;2.40;;
6077;SDS011;3067;49.470;10.394;2023-04-25T07:05:44;4.03;;;2.97;;
6077;SDS011;3067;49.470;10.394;2023-04-25T07:08:11;3.30;;;2.60;;
6077;SDS011;3067;49.470;10.394;2023-04-25T07:10:39;3.10;;;2.80;;
6077;SDS011;3067;49.470;10.394;2023-04-25T07:13:06;2.50;;;2.37;;
6077;SDS011;3067;49.470;10.394;2023-04-25T07:15:33;3.33;;;2.80;;
6077;SDS011;3067;49.470;10.394;2023-04-25T07:18:01;2.83;;;2.63;;
6077;SDS011;3067;49.470;10.394;2023-04-25T07:20:28;3.07;;;2.77;;
6077;SDS011;3067;49.470;10.394;2023-04-25T07:22:57;3.00;;;2.70;;
6077;SDS011;3067;49.470;10.394;2023-04-25T07:25:24;4.10;;;2.90;;
6077;SDS011;3067;49.470;10.394;2023-04-25T07:27:52;5.00;;;2.70;;
6077;SDS011;3067;49.470;10.394;2023-04-25T07:30:19;3.80;;;2.60;;
6077;SDS011;3067;49.470;10.394;2023-04-25T07:32:46;2.70;;;2.50;;
6077;SDS011;3067;49.470;10.394;2023-04-25T07:35:15;3.50;;;3.20;;
6077;SDS011;3067;49.470;10.394;2023-04-25T07:37:42;7.10;;;3.37;;
6077;SDS011;3067;49.470;10.394;2023-04-25T07:40:11;4.10;;;2.80;;
6077;SDS011;3067;49.470;10.394;2023-04-25T07:42:40;3.00;;;2.60;;
6077;SDS011;3067;49.470;10.394;2023-04-25T07:45:08;3.57;;;3.27;;
6077;SDS011;3067;49.470;10.394;2023-04-25T07:47:35;6.70;;;3.50;;
6077;SDS011;3067;49.470;10.394;2023-04-25T07:50:03;4.97;;;3.90;;
6077;SDS011;3067;49.470;10.394;2023-04-25T07:52:31;5.10;;;4.00;;
6077;SDS011;3067;49.470;10.394;2023-04-25T07:54:58;5.00;;;3.30;;
6077;SDS011;3067;49.470;10.394;2023-04-25T07:57:27;5.40;;;4.50;;
6077;SDS011;3067;49.470;10.394;2023-04-25T07:59:54;9.20;;;4.90;;
6077;SDS011;3067;49.470;10.394;2023-04-25T08:02:22;13.80;;;5.67;;
6077;SDS011;3067;49.470;10.394;2023-04-25T08:04:51;8.03;;;4.67;;
6077;SDS011;3067;49.470;10.394;2023-04-25T08:07:18;8.80;;;5.33;;
6077;SDS011;3067;49.470;10.394;2023-04-25T08:09:45;5.47;;;4.67;;
6077;SDS011;3067;49.470;10.394;2023-04-25T08:12:13;8.30;;;4.90;;
6077;SDS011;3067;49.470;10.394;2023-04-25T08:14:43;5.90;;;4.60;;
6077;SDS011;3067;49.470;10.394;2023-04-25T08:17:10;6.83;;;4.50;;
6077;SDS011;3067;49.470;10.394;2023-04-25T08:19:37;5.60;;;4.87;;
6077;SDS011;3067;49.470;10.394;2023-04-25T08:22:05;6.73;;;4.87;;
6077;SDS011;3067;49.470;10.394;2023-04-25T08:24:32;5.57;;;4.27;;
6077;SDS011;3067;49.470;10.394;2023-04-25T08:27:00;6.10;;;4.00;;
6077;SDS011;3067;49.470;10.394;2023-04-25T08:29:27;4.30;;;3.60;;
6077;SDS011;3067;49.470;10.394;2023-04-25T08:31:56;11.10;;;4.50;;
6077;SDS011;3067;49.470;10.394;2023-04-25T08:34:23;6.83;;;3.87;;
6077;SDS011;3067;49.470;10.394;2023-04-25T08:36:50;8.30;;;4.60;;
6077;SDS011;3067;49.470;10.394;2023-04-25T08:39:18;3.60;;;3.00;;
6077;SDS011;3067;49.470;10.394;2023-04-25T08:41:45;7.03;;;4.27;;
6077;SDS011;3067;49.470;10.394;2023-04-25T08:44:13;6.80;;;4.50;;
6077;SDS011;3067;49.470;10.394;2023-04-25T08:46:40;7.73;;;4.10;;
6077;SDS011;3067;49.470;10.394;2023-04-25T08:49:09;7.13;;;4.50;;
6077;SDS011;3067;49.470;10.394;2023-04-25T08:51:39;6.53;;;4.40;;
6077;SDS011;3067;49.470;10.394;2023-04-25T08:54:12;4.20;;;3.83;;
6077;SDS011;3067;49.470;10.394;2023-04-25T08:56:40;7.10;;;4.57;;
6077;SDS011;3067;49.470;10.394;2023-04-25T08:59:08;5.03;;;3.70;;
6077;SDS011;3067;49.470;10.394;2023-04-25T09:01:35;5.13;;;4.27;;
6077;SDS011;3067;49.470;10.394;2023-04-25T09:04:03;6.30;;;4.30;;
6077;SDS011;3067;49.470;10.394;2023-04-25T09:06:31;4.47;;;3.60;;
6077;SDS011;3067;49.470;10.394;2023-04-25T09:09:01;4.50;;;3.70;;
6077;SDS011;3067;49.470;10.394;2023-04-25T09:11:29;5.37;;;3.50;;
6077;SDS011;3067;49.470;10.394;2023-04-25T09:14:09;4.23;;;3.83;;
6077;SDS011;3067;49.470;10.394;2023-04-25T09:16:42;10.80;;;3.27;;
6077;SDS011;3067;49.470;10.394;2023-04-25T09:19:24;4.80;;;3.90;;
6077;SDS011;3067;49.470;10.394;2023-04-25T09:21:54;10.00;;;3.60;;
6077;SDS011;3067;49.470;10.394;2023-04-25T09:24:29;4.17;;;3.40;;
6077;SDS011;3067;49.470;10.394;2023-04-25T09:26:57;4.80;;;3.23;;
6077;SDS011;3067;49.470;10.394;2023-04-25T09:29:29;4.03;;;3.07;;
6077;SDS011;3067;49.470;10.394;2023-04-25T09:32:14;3.10;;;2.80;;
6077;SDS011;3067;49.470;10.394;2023-04-25T09:34:42;3.40;;;2.80;;
6077;SDS011;3067;49.470;10.394;2023-04-25T09:37:11;4.63;;;2.80;;
6077;SDS011;3067;49.470;10.394;2023-04-25T09:39:38;3.87;;;3.00;;
6077;SDS011;3067;49.470;10.394;2023-04-25T09:42:06;3.87;;;2.70;;
6077;SDS011;3067;49.470;10.394;2023-04-25T09:44:33;5.53;;;2.90;;
6077;SDS011;3067;49.470;10.394;2023-04-25T09:47:00;2.87;;;2.53;;
6077;SDS011;3067;49.470;10.394;2023-04-25T09:49:28;2.63;;;2.43;;
6077;SDS011;3067;49.470;10.394;2023-04-25T09:51:56;5.90;;;3.20;;
6077;SDS011;3067;49.470;10.394;2023-04-25T09:54:24;2.27;;;2.00;;
6077;SDS011;3067;49.470;10.394;2023-04-25T09:56:53;2.80;;;2.60;;
6077;SDS011;3067;49.470;10.394;2023-04-25T09:59:20;2.70;;;2.40;;
6077;SDS011;3067;49.470;10.394;2023-04-25T10:01:48;5.30;;;2.73;;
6077;SDS011;3067;49.470;10.394;2023-04-25T10:04:19;7.03;;;3.27;;
6077;SDS011;3067;49.470;10.394;2023-04-25T10:06:48;2.10;;;2.00;;
6077;SDS011;3067;49.470;10.394;2023-04-25T10:09:17;3.00;;;2.47;;
6077;SDS011;3067;49.470;10.394;2023-04-25T10:11:48;3.73;;;2.40;;
6077;SDS011;3067;49.470;10.394;2023-04-25T10:14:16;3.47;;;2.97;;
6077;SDS011;3067;49.470;10.394;2023-04-25T10:16:43;3.23;;;2.80;;
6077;SDS011;3067;49.470;10.394;2023-04-25T10:19:12;3.57;;;2.57;;
6077;SDS011;3067;49.470;10.394;2023-04-25T10:21:40;3.00;;;2.70;;
6077;SDS011;3067;49.470;10.394;2023-04-25T10:24:11;2.77;;;2.57;;
6077;SDS011;3067;49.470;10.394;2023-04-25T10:26:38;4.93;;;3.10;;
6077;SDS011;3067;49.470;10.394;2023-04-25T10:29:08;3.47;;;2.50;;
6077;SDS011;3067;49.470;10.394;2023-04-25T10:31:44;3.60;;;2.60;;
6077;SDS011;3067;49.470;10.394;2023-04-25T10:34:12;10.60;;;3.13;;
6077;SDS011;3067;49.470;10.394;2023-04-25T10:36:39;9.90;;;2.50;;
6077;SDS011;3067;49.470;10.394;2023-04-25T10:39:07;2.20;;;2.00;;
6077;SDS011;3067;49.470;10.394;2023-04-25T10:41:47;2.00;;;1.87;;
6077;SDS011;3067;49.470;10.394;2023-04-25T10:44:16;1.93;;;1.83;;
6077;SDS011;3067;49.470;10.394;2023-04-25T10:46:44;2.03;;;1.93;;
6077;SDS011;3067;49.470;10.394;2023-04-25T10:49:27;2.50;;;1.70;;
6077;SDS011;3067;49.470;10.394;2023-04-25T10:52:10;1.77;;;1.67;;
6077;SDS011;3067;49.470;10.394;2023-04-25T10:54:40;2.83;;;2.10;;
6077;SDS011;3067;49.470;10.394;2023-04-25T10:57:07;3.70;;;1.70;;
6077;SDS011;3067;49.470;10.394;2023-04-25T10:59:36;1.53;;;1.43;;
6077;SDS011;3067;49.470;10.394;2023-04-25T11:02:11;1.50;;;1.40;;
6077;SDS011;3067;49.470;10.394;2023-04-25T11:04:39;1.70;;;1.30;;
6077;SDS011;3067;49.470;10.394;2023-04-25T11:07:09;1.83;;;1.73;;
6077;SDS011;3067;49.470;10.394;2023-04-25T11:09:38;1.67;;;1.60;;
6077;SDS011;3067;49.470;10.394;2023-04-25T11:12:07;1.53;;;1.43;;
6077;SDS011;3067;49.470;10.394;2023-04-25T11:14:36;2.67;;;1.80;;
6077;SDS011;3067;49.470;10.394;2023-04-25T11:17:03;1.80;;;1.70;;
6077;SDS011;3067;49.470;10.394;2023-04-25T11:19:31;1.63;;;1.53;;
6077;SDS011;3067;49.470;10.394;2023-04-25T11:21:59;1.37;;;1.37;;
6077;SDS011;3067;49.470;10.394;2023-04-25T11:24:26;1.53;;;1.43;;
6077;SDS011;3067;49.470;10.394;2023-04-25T11:26:54;3.80;;;2.10;;
6077;SDS011;3067;49.470;10.394;2023-04-25T11:29:22;1.80;;;1.60;;
6077;SDS011;3067;49.470;10.394;2023-04-25T11:31:51;2.73;;;2.07;;
6077;SDS011;3067;49.470;10.394;2023-04-25T11:34:24;3.03;;;1.80;;
6077;SDS011;3067;49.470;10.394;2023-04-25T11:37:14;2.40;;;1.90;;
6077;SDS011;3067;49.470;10.394;2023-04-25T11:39:44;1.60;;;1.50;;
6077;SDS011;3067;49.470;10.394;2023-04-25T11:42:12;1.73;;;1.63;;
6077;SDS011;3067;49.470;10.394;2023-04-25T11:44:39;1.93;;;1.80;;
6077;SDS011;3067;49.470;10.394;2023-04-25T11:47:08;1.83;;;1.73;;
6077;SDS011;3067;49.470;10.394;2023-04-25T11:49:35;1.83;;;1.63;;
6077;SDS011;3067;49.470;10.394;2023-04-25T11:52:03;1.93;;;1.73;;
6077;SDS011;3067;49.470;10.394;2023-04-25T11:54:34;1.50;;;1.50;;
6077;SDS011;3067;49.470;10.394;2023-04-25T11:57:02;7.80;;;2.00;;
6077;SDS011;3067;49.470;10.394;2023-04-25T11:59:29;2.70;;;1.93;;
6077;SDS011;3067;49.470;10.394;2023-04-25T12:01:57;2.03;;;1.77;;
6077;SDS011;3067;49.470;10.394;2023-04-25T12:04:29;2.10;;;1.90;;
6077;SDS011;3067;49.470;10.394;2023-04-25T12:06:58;1.50;;;1.40;;
6077;SDS011;3067;49.470;10.394;2023-04-25T12:09:28;1.80;;;1.70;;
6077;SDS011;3067;49.470;10.394;2023-04-25T12:11:56;1.87;;;1.70;;
6077;SDS011;3067;49.470;10.394;2023-04-25T12:14:24;1.83;;;1.73;;
6077;SDS011;3067;49.470;10.394;2023-04-25T12:16:52;2.83;;;1.90;;
6077;SDS011;3067;49.470;10.394;2023-04-25T12:19:20;3.40;;;2.10;;
6077;SDS011;3067;49.470;10.394;2023-04-25T12:21:49;1.80;;;1.70;;
6077;SDS011;3067;49.470;10.394;2023-04-25T12:24:17;1.97;;;1.80;;
6077;SDS011;3067;49.470;10.394;2023-04-25T12:26:48;1.70;;;1.60;;
6077;SDS011;3067;49.470;10.394;2023-04-25T12:29:20;2.10;;;1.90;;
6077;SDS011;3067;49.470;10.394;2023-04-25T12:31:48;3.27;;;1.63;;
6077;SDS011;3067;49.470;10.394;2023-04-25T12:34:16;2.67;;;2.47;;
6077;SDS011;3067;49.470;10.394;2023-04-25T12:36:43;2.03;;;1.80;;
6077;SDS011;3067;49.470;10.394;2023-04-25T12:39:15;3.10;;;1.97;;
6077;SDS011;3067;49.470;10.394;2023-04-25T12:41:43;2.57;;;2.30;;
6077;SDS011;3067;49.470;10.394;2023-04-25T12:44:10;1.83;;;1.73;;
6077;SDS011;3067;49.470;10.394;2023-04-25T12:46:38;1.90;;;1.80;;
6077;SDS011;3067;49.470;10.394;2023-04-25T12:49:05;1.67;;;1.57;;
6077;SDS011;3067;49.470;10.394;2023-04-25T12:51:33;3.23;;;1.47;;
6077;SDS011;3067;49.470;10.394;2023-04-25T12:54:01;2.00;;;1.90;;
6077;SDS011;3067;49.470;10.394;2023-04-25T12:56:30;2.77;;;1.60;;
6077;SDS011;3067;49.470;10.394;2023-04-25T12:58:57;2.37;;;2.17;;
6077;SDS011;3067;49.470;10.394;2023-04-25T13:01:25;1.90;;;1.80;;
6077;SDS011;3067;49.470;10.394;2023-04-25T13:03:52;2.40;;;2.20;;
6077;SDS011;3067;49.470;10.394;2023-04-25T13:06:21;2.27;;;2.17;;
6077;SDS011;3067;49.470;10.394;2023-04-25T13:08:48;1.87;;;1.73;;
6077;SDS011;3067;49.470;10.394;2023-04-25T13:11:15;2.00;;;1.60;;
6077;SDS011;3067;49.470;10.394;2023-04-25T13:13:44;1.80;;;1.70;;
6077;SDS011;3067;49.470;10.394;2023-04-25T13:16:11;2.23;;;1.60;;
6077;SDS011;3067;49.470;10.394;2023-04-25T13:18:40;2.13;;;2.03;;
6077;SDS011;3067;49.470;10.394;2023-04-25T13:21:08;1.97;;;1.80;;
6077;SDS011;3067;49.470;10.394;2023-04-25T13:23:36;3.90;;;2.00;;
6077;SDS011;3067;49.470;10.394;2023-04-25T13:26:03;2.27;;;2.07;;
6077;SDS011;3067;49.470;10.394;2023-04-25T13:28:31;2.47;;;2.00;;
6077;SDS011;3067;49.470;10.394;2023-04-25T13:31:01;1.80;;;1.70;;
6077;SDS011;3067;49.470;10.394;2023-04-25T13:33:28;2.10;;;2.00;;
6077;SDS011;3067;49.470;10.394;2023-04-25T13:35:56;1.93;;;1.83;;
6077;SDS011;3067;49.470;10.394;2023-04-25T13:38:23;1.60;;;1.50;;
6077;SDS011;3067;49.470;10.394;2023-04-25T13:40:51;4.90;;;2.33;;
6077;SDS011;3067;49.470;10.394;2023-04-25T13:43:19;2.00;;;1.90;;
6077;SDS011;3067;49.470;10.394;2023-04-25T13:45:46;2.43;;;1.87;;
6077;SDS011;3067;49.470;10.394;2023-04-25T13:48:15;2.33;;;1.80;;
6077;SDS011;3067;49.470;10.394;2023-04-25T13:50:43;3.47;;;2.10;;
6077;SDS011;3067;49.470;10.394;2023-04-25T13:53:10;3.17;;;2.10;;
6077;SDS011;3067;49.470;10.394;2023-04-25T13:55:38;2.60;;;2.00;;
6077;SDS011;3067;49.470;10.394;2023-04-25T13:58:05;2.20;;;1.80;;
6077;SDS011;3067;49.470;10.394;2023-04-25T14:00:35;1.80;;;1.70;;
6077;SDS011;3067;49.470;10.394;2023-04-25T14:03:03;1.60;;;1.50;;
6077;SDS011;3067;49.470;10.394;2023-04-25T14:05:33;5.60;;;1.70;;
6077;SDS011;3067;49.470;10.394;2023-04-25T14:08:05;5.50;;;2.03;;
6077;SDS011;3067;49.470;10.394;2023-04-25T14:10:33;2.10;;;2.00;;
6077;SDS011;3067;49.470;10.394;2023-04-25T14:13:00;2.30;;;2.10;;
6077;SDS011;3067;49.470;10.394;2023-04-25T14:15:28;4.20;;;2.37;;
6077;SDS011;3067;49.470;10.394;2023-04-25T14:17:55;2.33;;;2.13;;
6077;SDS011;3067;49.470;10.394;2023-04-25T14:20:23;2.90;;;2.30;;
6077;SDS011;3067;49.470;10.394;2023-04-25T14:22:52;2.80;;;2.43;;
6077;SDS011;3067;49.470;10.394;2023-04-25T14:25:21;2.50;;;2.00;;
6077;SDS011;3067;49.470;10.394;2023-04-25T14:27:48;2.97;;;2.47;;
6077;SDS011;3067;49.470;10.394;2023-04-25T14:30:16;4.00;;;2.10;;
6077;SDS011;3067;49.470;10.394;2023-04-25T14:32:43;1.80;;;1.70;;
6077;SDS011;3067;49.470;10.394;2023-04-25T14:35:11;2.80;;;2.23;;
6077;SDS011;3067;49.470;10.394;2023-04-25T14:37:38;2.53;;;2.27;;
6077;SDS011;3067;49.470;10.394;2023-04-25T14:40:08;3.10;;;2.00;;
6077;SDS011;3067;49.470;10.394;2023-04-25T14:42:38;5.40;;;2.47;;
6077;SDS011;3067;49.470;10.394;2023-04-25T14:45:06;2.40;;;2.20;;
6077;SDS011;3067;49.470;10.394;2023-04-25T14:47:33;5.30;;;2.80;;
6077;SDS011;3067;49.470;10.394;2023-04-25T14:50:01;3.87;;;2.10;;
6077;SDS011;3067;49.470;10.394;2023-04-25T14:52:29;2.27;;;2.10;;
6077;SDS011;3067;49.470;10.394;2023-04-25T14:54:57;5.20;;;2.80;;
6077;SDS011;3067;49.470;10.394;2023-04-25T14:57:26;2.10;;;1.90;;
6077;SDS011;3067;49.470;10.394;2023-04-25T14:59:53;3.83;;;2.30;;
6077;SDS011;3067;49.470;10.394;2023-04-25T15:02:21;2.73;;;2.53;;
6077;SDS011;3067;49.470;10.394;2023-04-25T15:04:48;3.00;;;2.80;;
6077;SDS011;3067;49.470;10.394;2023-04-25T15:07:16;2.33;;;2.13;;